sensor_id;sensor_type;location;lat;lon;timestamp;P1;durP1;ratioP1;P2;durP2;ratioP2
5662;SDS011;2854;42.692;23.364;2023-02-28T00:01:10;20.43;;;6.03;;
5662;SDS011;2854;42.692;23.364;2023-02-28T00:03:36;19.57;;;6.53;;
5662;SDS011;2854;42.692;23.364;2023-02-28T00:06:05;9.90;;;6.10;;
5662;SDS011;2854;42.692;23.364;2023-02-28T00:08:30;11.80;;;5.33;;
5662;SDS011;2854;42.692;23.364;2023-02-28T00:10:56;14.13;;;7.20;;
5662;SDS011;2854;42.692;23.364;2023-02-28T00:13:21;11.13;;;6.17;;
5662;SDS011;2854;42.692;23.364;2023-02-28T00:15:46;7.33;;;5.37;;
5662;SDS011;2854;42.692;23.364;2023-02-28T00:18:11;11.90;;;6.80;;
5662;SDS011;2854;42.692;23.364;2023-02-28T00:20:37;15.00;;;6.87;;
5662;SDS011;2854;42.692;23.364;2023-02-28T00:23:02;18.50;;;5.57;;
5662;SDS011;2854;42.692;23.364;2023-02-28T00:25:27;11.17;;;5.17;;
5662;SDS011;2854;42.692;23.364;2023-02-28T00:27:53;7.67;;;5.40;;
5662;SDS011;2854;42.692;23.364;2023-02-28T00:30:19;9.60;;;5.87;;
5662;SDS011;2854;42.692;23.364;2023-02-28T00:32:44;10.67;;;6.00;;
5662;SDS011;2854;42.692;23.364;2023-02-28T00:35:10;12.17;;;6.27;;
5662;SDS011;2854;42.692;23.364;2023-02-28T00:37:36;10.87;;;6.63;;
5662;SDS011;2854;42.692;23.364;2023-02-28T00:40:01;19.53;;;7.40;;
5662;SDS011;2854;42.692;23.364;2023-02-28T00:42:29;10.50;;;6.57;;
5662;SDS011;2854;42.692;23.364;2023-02-28T00:44:55;11.93;;;6.87;;
5662;SDS011;2854;42.692;23.364;2023-02-28T00:47:20;14.93;;;6.13;;
5662;SDS011;2854;42.692;23.364;2023-02-28T00:49:45;14.57;;;6.40;;
5662;SDS011;2854;42.692;23.364;2023-02-28T00:52:11;8.50;;;5.67;;
5662;SDS011;2854;42.692;23.364;2023-02-28T00:54:36;13.20;;;6.40;;
5662;SDS011;2854;42.692;23.364;2023-02-28T00:57:01;13.40;;;6.83;;
5662;SDS011;2854;42.692;23.364;2023-02-28T00:59:27;11.53;;;6.60;;
5662;SDS011;2854;42.692;23.364;2023-02-28T01:01:52;14.30;;;7.40;;
5662;SDS011;2854;42.692;23.364;2023-02-28T01:04:17;13.40;;;6.57;;
5662;SDS011;2854;42.692;23.364;2023-02-28T01:06:42;10.40;;;6.83;;
5662;SDS011;2854;42.692;23.364;2023-02-28T01:09:08;14.60;;;6.67;;
5662;SDS011;2854;42.692;23.364;2023-02-28T01:11:33;18.57;;;6.67;;
5662;SDS011;2854;42.692;23.364;2023-02-28T01:13:59;12.60;;;6.43;;
5662;SDS011;2854;42.692;23.364;2023-02-28T01:16:24;17.23;;;7.00;;
5662;SDS011;2854;42.692;23.364;2023-02-28T01:18:50;12.60;;;6.37;;
5662;SDS011;2854;42.692;23.364;2023-02-28T01:21:17;12.80;;;7.20;;
5662;SDS011;2854;42.692;23.364;2023-02-28T01:23:42;9.33;;;4.63;;
5662;SDS011;2854;42.692;23.364;2023-02-28T01:26:08;9.50;;;5.33;;
5662;SDS011;2854;42.692;23.364;2023-02-28T01:28:34;8.43;;;5.20;;
5662;SDS011;2854;42.692;23.364;2023-02-28T01:30:59;10.33;;;6.90;;
5662;SDS011;2854;42.692;23.364;2023-02-28T01:33:25;12.20;;;6.77;;
5662;SDS011;2854;42.692;23.364;2023-02-28T01:35:57;8.07;;;5.77;;
5662;SDS011;2854;42.692;23.364;2023-02-28T01:38:22;10.30;;;6.30;;
5662;SDS011;2854;42.692;23.364;2023-02-28T01:40:48;11.97;;;6.47;;
5662;SDS011;2854;42.692;23.364;2023-02-28T01:43:21;14.33;;;5.87;;
5662;SDS011;2854;42.692;23.364;2023-02-28T01:45:47;16.93;;;6.87;;
5662;SDS011;2854;42.692;23.364;2023-02-28T01:48:12;8.70;;;5.10;;
5662;SDS011;2854;42.692;23.364;2023-02-28T01:50:39;16.23;;;5.60;;
5662;SDS011;2854;42.692;23.364;2023-02-28T01:53:05;9.70;;;5.60;;
5662;SDS011;2854;42.692;23.364;2023-02-28T01:55:31;10.80;;;5.90;;
5662;SDS011;2854;42.692;23.364;2023-02-28T01:57:58;13.07;;;6.57;;
5662;SDS011;2854;42.692;23.364;2023-02-28T02:00:25;8.93;;;5.83;;
5662;SDS011;2854;42.692;23.364;2023-02-28T02:02:53;11.83;;;6.23;;
5662;SDS011;2854;42.692;23.364;2023-02-28T02:05:20;14.10;;;6.83;;
5662;SDS011;2854;42.692;23.364;2023-02-28T02:07:46;20.40;;;8.50;;
5662;SDS011;2854;42.692;23.364;2023-02-28T02:10:20;12.00;;;7.80;;
5662;SDS011;2854;42.692;23.364;2023-02-28T02:15:26;13.20;;;5.90;;
5662;SDS011;2854;42.692;23.364;2023-02-28T02:17:55;10.60;;;6.77;;
5662;SDS011;2854;42.692;23.364;2023-02-28T02:20:27;9.07;;;5.80;;
5662;SDS011;2854;42.692;23.364;2023-02-28T02:35:47;17.60;;;8.07;;
5662;SDS011;2854;42.692;23.364;2023-02-28T02:41:03;16.73;;;8.10;;
5662;SDS011;2854;42.692;23.364;2023-02-28T02:43:32;19.07;;;7.43;;
5662;SDS011;2854;42.692;23.364;2023-02-28T02:45:59;12.87;;;7.57;;
5662;SDS011;2854;42.692;23.364;2023-02-28T02:48:27;15.30;;;7.00;;
5662;SDS011;2854;42.692;23.364;2023-02-28T02:50:55;18.93;;;7.60;;
5662;SDS011;2854;42.692;23.364;2023-02-28T02:53:23;24.60;;;8.43;;
5662;SDS011;2854;42.692;23.364;2023-02-28T02:55:49;9.53;;;6.87;;
5662;SDS011;2854;42.692;23.364;2023-02-28T02:58:19;15.00;;;7.43;;
5662;SDS011;2854;42.692;23.364;2023-02-28T03:00:47;16.30;;;7.83;;
5662;SDS011;2854;42.692;23.364;2023-02-28T03:03:14;15.70;;;7.03;;
5662;SDS011;2854;42.692;23.364;2023-02-28T03:05:44;18.00;;;7.67;;
5662;SDS011;2854;42.692;23.364;2023-02-28T03:08:11;13.20;;;7.17;;
5662;SDS011;2854;42.692;23.364;2023-02-28T03:13:52;15.03;;;7.77;;
5662;SDS011;2854;42.692;23.364;2023-02-28T03:16:42;10.73;;;6.50;;
5662;SDS011;2854;42.692;23.364;2023-02-28T03:21:56;18.53;;;8.33;;
5662;SDS011;2854;42.692;23.364;2023-02-28T03:24:19;14.37;;;7.13;;
5662;SDS011;2854;42.692;23.364;2023-02-28T03:26:50;9.90;;;6.80;;
5662;SDS011;2854;42.692;23.364;2023-02-28T03:31:49;15.23;;;6.57;;
5662;SDS011;2854;42.692;23.364;2023-02-28T03:34:17;12.77;;;7.50;;
5662;SDS011;2854;42.692;23.364;2023-02-28T03:36:45;19.80;;;8.37;;
5662;SDS011;2854;42.692;23.364;2023-02-28T03:39:55;23.93;;;8.90;;
5662;SDS011;2854;42.692;23.364;2023-02-28T03:42:02;13.60;;;7.70;;
5662;SDS011;2854;42.692;23.364;2023-02-28T03:44:30;24.47;;;8.50;;
5662;SDS011;2854;42.692;23.364;2023-02-28T03:46:59;17.43;;;6.80;;
5662;SDS011;2854;42.692;23.364;2023-02-28T03:49:27;19.90;;;9.00;;
5662;SDS011;2854;42.692;23.364;2023-02-28T03:51:55;14.90;;;6.90;;
5662;SDS011;2854;42.692;23.364;2023-02-28T03:54:28;20.73;;;8.37;;
5662;SDS011;2854;42.692;23.364;2023-02-28T03:57:07;22.70;;;9.50;;
5662;SDS011;2854;42.692;23.364;2023-02-28T03:59:46;23.17;;;7.70;;
5662;SDS011;2854;42.692;23.364;2023-02-28T04:02:12;18.33;;;7.20;;
5662;SDS011;2854;42.692;23.364;2023-02-28T04:04:38;18.67;;;8.03;;
5662;SDS011;2854;42.692;23.364;2023-02-28T04:07:07;19.60;;;9.40;;
5662;SDS011;2854;42.692;23.364;2023-02-28T04:09:32;26.60;;;9.43;;
5662;SDS011;2854;42.692;23.364;2023-02-28T04:11:58;19.43;;;9.40;;
5662;SDS011;2854;42.692;23.364;2023-02-28T04:14:23;16.20;;;8.87;;
5662;SDS011;2854;42.692;23.364;2023-02-28T04:16:49;26.10;;;11.60;;
5662;SDS011;2854;42.692;23.364;2023-02-28T04:19:16;18.40;;;7.97;;
5662;SDS011;2854;42.692;23.364;2023-02-28T04:21:42;14.40;;;7.83;;
5662;SDS011;2854;42.692;23.364;2023-02-28T04:24:10;9.30;;;6.07;;
5662;SDS011;2854;42.692;23.364;2023-02-28T04:26:40;21.03;;;10.07;;
5662;SDS011;2854;42.692;23.364;2023-02-28T04:29:06;21.23;;;10.57;;
5662;SDS011;2854;42.692;23.364;2023-02-28T04:31:32;21.70;;;9.60;;
5662;SDS011;2854;42.692;23.364;2023-02-28T04:33:57;17.77;;;8.73;;
5662;SDS011;2854;42.692;23.364;2023-02-28T04:36:22;26.20;;;9.70;;
5662;SDS011;2854;42.692;23.364;2023-02-28T04:38:48;17.00;;;8.50;;
5662;SDS011;2854;42.692;23.364;2023-02-28T04:41:13;28.00;;;9.63;;
5662;SDS011;2854;42.692;23.364;2023-02-28T04:43:39;45.60;;;11.10;;
5662;SDS011;2854;42.692;23.364;2023-02-28T04:46:04;41.23;;;10.93;;
5662;SDS011;2854;42.692;23.364;2023-02-28T04:48:31;18.47;;;9.10;;
5662;SDS011;2854;42.692;23.364;2023-02-28T04:51:01;21.13;;;9.57;;
5662;SDS011;2854;42.692;23.364;2023-02-28T04:53:27;26.30;;;10.97;;
5662;SDS011;2854;42.692;23.364;2023-02-28T04:55:52;22.63;;;10.93;;
5662;SDS011;2854;42.692;23.364;2023-02-28T04:58:17;27.03;;;11.50;;
5662;SDS011;2854;42.692;23.364;2023-02-28T05:00:42;26.37;;;12.13;;
5662;SDS011;2854;42.692;23.364;2023-02-28T05:03:08;26.47;;;11.60;;
5662;SDS011;2854;42.692;23.364;2023-02-28T05:05:34;28.90;;;11.23;;
5662;SDS011;2854;42.692;23.364;2023-02-28T05:07:59;21.50;;;9.83;;
5662;SDS011;2854;42.692;23.364;2023-02-28T05:10:25;34.77;;;9.73;;
5662;SDS011;2854;42.692;23.364;2023-02-28T05:12:50;21.50;;;10.93;;
5662;SDS011;2854;42.692;23.364;2023-02-28T05:15:16;19.27;;;10.33;;
5662;SDS011;2854;42.692;23.364;2023-02-28T05:17:41;24.23;;;10.97;;
5662;SDS011;2854;42.692;23.364;2023-02-28T05:20:07;20.00;;;10.13;;
5662;SDS011;2854;42.692;23.364;2023-02-28T05:22:35;22.97;;;10.87;;
5662;SDS011;2854;42.692;23.364;2023-02-28T05:25:01;23.60;;;10.27;;
5662;SDS011;2854;42.692;23.364;2023-02-28T05:27:26;20.93;;;8.60;;
5662;SDS011;2854;42.692;23.364;2023-02-28T05:29:53;37.00;;;13.43;;
5662;SDS011;2854;42.692;23.364;2023-02-28T05:32:18;26.83;;;11.10;;
5662;SDS011;2854;42.692;23.364;2023-02-28T05:34:43;21.80;;;10.23;;
5662;SDS011;2854;42.692;23.364;2023-02-28T05:37:11;23.50;;;10.83;;
5662;SDS011;2854;42.692;23.364;2023-02-28T05:39:36;27.07;;;10.63;;
5662;SDS011;2854;42.692;23.364;2023-02-28T05:42:02;32.07;;;10.50;;
5662;SDS011;2854;42.692;23.364;2023-02-28T05:44:27;22.00;;;8.87;;
5662;SDS011;2854;42.692;23.364;2023-02-28T05:46:52;19.27;;;9.37;;
5662;SDS011;2854;42.692;23.364;2023-02-28T05:49:17;26.50;;;8.90;;
5662;SDS011;2854;42.692;23.364;2023-02-28T05:51:43;29.73;;;10.17;;
5662;SDS011;2854;42.692;23.364;2023-02-28T05:54:08;21.40;;;9.00;;
5662;SDS011;2854;42.692;23.364;2023-02-28T05:56:33;24.03;;;8.80;;
5662;SDS011;2854;42.692;23.364;2023-02-28T05:59:04;24.07;;;8.50;;
5662;SDS011;2854;42.692;23.364;2023-02-28T06:01:31;21.47;;;10.40;;
5662;SDS011;2854;42.692;23.364;2023-02-28T06:03:57;14.93;;;8.20;;
5662;SDS011;2854;42.692;23.364;2023-02-28T06:06:23;26.83;;;9.10;;
5662;SDS011;2854;42.692;23.364;2023-02-28T06:08:48;28.90;;;9.20;;
5662;SDS011;2854;42.692;23.364;2023-02-28T06:11:13;23.80;;;9.47;;
5662;SDS011;2854;42.692;23.364;2023-02-28T06:13:38;24.03;;;11.00;;
5662;SDS011;2854;42.692;23.364;2023-02-28T06:16:04;20.77;;;10.47;;
5662;SDS011;2854;42.692;23.364;2023-02-28T06:18:29;34.80;;;12.43;;
5662;SDS011;2854;42.692;23.364;2023-02-28T06:20:54;35.67;;;13.90;;
5662;SDS011;2854;42.692;23.364;2023-02-28T06:23:20;42.23;;;13.50;;
5662;SDS011;2854;42.692;23.364;2023-02-28T06:25:45;36.23;;;14.70;;
5662;SDS011;2854;42.692;23.364;2023-02-28T06:28:11;36.30;;;14.93;;
5662;SDS011;2854;42.692;23.364;2023-02-28T06:30:37;35.63;;;12.27;;
5662;SDS011;2854;42.692;23.364;2023-02-28T06:33:02;41.20;;;10.30;;
5662;SDS011;2854;42.692;23.364;2023-02-28T06:35:27;21.70;;;11.10;;
5662;SDS011;2854;42.692;23.364;2023-02-28T06:37:53;18.20;;;9.00;;
5662;SDS011;2854;42.692;23.364;2023-02-28T06:40:18;21.17;;;9.13;;
5662;SDS011;2854;42.692;23.364;2023-02-28T06:42:43;22.63;;;9.90;;
5662;SDS011;2854;42.692;23.364;2023-02-28T06:45:09;17.83;;;7.57;;
5662;SDS011;2854;42.692;23.364;2023-02-28T06:47:35;29.13;;;14.43;;
5662;SDS011;2854;42.692;23.364;2023-02-28T06:50:01;15.77;;;8.73;;
5662;SDS011;2854;42.692;23.364;2023-02-28T06:52:26;20.10;;;8.03;;
5662;SDS011;2854;42.692;23.364;2023-02-28T06:54:51;21.27;;;9.97;;
5662;SDS011;2854;42.692;23.364;2023-02-28T06:57:25;22.10;;;10.37;;
5662;SDS011;2854;42.692;23.364;2023-02-28T06:59:50;21.00;;;10.60;;
5662;SDS011;2854;42.692;23.364;2023-02-28T07:02:15;41.70;;;16.50;;
5662;SDS011;2854;42.692;23.364;2023-02-28T07:04:41;43.40;;;18.67;;
5662;SDS011;2854;42.692;23.364;2023-02-28T07:07:09;38.80;;;16.20;;
5662;SDS011;2854;42.692;23.364;2023-02-28T07:09:34;25.07;;;12.33;;
5662;SDS011;2854;42.692;23.364;2023-02-28T07:12:00;35.80;;;14.50;;
5662;SDS011;2854;42.692;23.364;2023-02-28T07:14:25;18.07;;;10.30;;
5662;SDS011;2854;42.692;23.364;2023-02-28T07:16:51;22.43;;;10.07;;
5662;SDS011;2854;42.692;23.364;2023-02-28T07:19:16;30.30;;;11.97;;
5662;SDS011;2854;42.692;23.364;2023-02-28T07:21:41;25.00;;;12.00;;
5662;SDS011;2854;42.692;23.364;2023-02-28T07:24:07;31.83;;;11.80;;
5662;SDS011;2854;42.692;23.364;2023-02-28T07:26:32;20.73;;;12.23;;
5662;SDS011;2854;42.692;23.364;2023-02-28T07:28:59;34.70;;;12.80;;
5662;SDS011;2854;42.692;23.364;2023-02-28T07:31:24;41.43;;;14.13;;
5662;SDS011;2854;42.692;23.364;2023-02-28T07:33:50;26.77;;;13.17;;
5662;SDS011;2854;42.692;23.364;2023-02-28T07:36:16;26.53;;;12.23;;
5662;SDS011;2854;42.692;23.364;2023-02-28T07:38:43;28.13;;;12.77;;
5662;SDS011;2854;42.692;23.364;2023-02-28T07:41:09;26.60;;;13.30;;
5662;SDS011;2854;42.692;23.364;2023-02-28T07:43:35;36.70;;;15.60;;
5662;SDS011;2854;42.692;23.364;2023-02-28T07:46:07;25.10;;;11.50;;
5662;SDS011;2854;42.692;23.364;2023-02-28T07:48:32;24.20;;;12.10;;
5662;SDS011;2854;42.692;23.364;2023-02-28T07:50:58;19.17;;;9.43;;
5662;SDS011;2854;42.692;23.364;2023-02-28T07:53:23;15.83;;;8.23;;
5662;SDS011;2854;42.692;23.364;2023-02-28T07:55:49;24.83;;;10.27;;
5662;SDS011;2854;42.692;23.364;2023-02-28T07:58:14;22.20;;;10.20;;
5662;SDS011;2854;42.692;23.364;2023-02-28T08:00:40;18.93;;;9.97;;
5662;SDS011;2854;42.692;23.364;2023-02-28T08:03:05;19.37;;;9.67;;
5662;SDS011;2854;42.692;23.364;2023-02-28T08:05:30;21.37;;;8.80;;
5662;SDS011;2854;42.692;23.364;2023-02-28T08:07:55;23.90;;;10.97;;
5662;SDS011;2854;42.692;23.364;2023-02-28T08:10:21;27.27;;;11.30;;
5662;SDS011;2854;42.692;23.364;2023-02-28T08:12:46;20.50;;;12.03;;
5662;SDS011;2854;42.692;23.364;2023-02-28T08:15:11;17.53;;;10.80;;
5662;SDS011;2854;42.692;23.364;2023-02-28T08:17:37;21.87;;;11.10;;
5662;SDS011;2854;42.692;23.364;2023-02-28T08:20:02;23.13;;;10.70;;
5662;SDS011;2854;42.692;23.364;2023-02-28T08:22:29;21.40;;;11.50;;
5662;SDS011;2854;42.692;23.364;2023-02-28T08:24:54;26.70;;;12.47;;
5662;SDS011;2854;42.692;23.364;2023-02-28T08:27:19;22.07;;;11.87;;
5662;SDS011;2854;42.692;23.364;2023-02-28T08:29:45;22.63;;;11.40;;
5662;SDS011;2854;42.692;23.364;2023-02-28T08:32:10;29.20;;;14.30;;
5662;SDS011;2854;42.692;23.364;2023-02-28T08:34:36;27.73;;;14.57;;
5662;SDS011;2854;42.692;23.364;2023-02-28T08:37:03;26.50;;;12.30;;
5662;SDS011;2854;42.692;23.364;2023-02-28T08:39:28;37.17;;;14.57;;
5662;SDS011;2854;42.692;23.364;2023-02-28T08:41:54;26.23;;;11.13;;
5662;SDS011;2854;42.692;23.364;2023-02-28T08:44:19;23.23;;;11.03;;
5662;SDS011;2854;42.692;23.364;2023-02-28T08:46:44;22.27;;;10.37;;
5662;SDS011;2854;42.692;23.364;2023-02-28T08:49:09;15.03;;;8.00;;
5662;SDS011;2854;42.692;23.364;2023-02-28T08:51:35;14.27;;;7.90;;
5662;SDS011;2854;42.692;23.364;2023-02-28T08:54:00;17.40;;;7.93;;
5662;SDS011;2854;42.692;23.364;2023-02-28T08:56:26;13.20;;;6.97;;
5662;SDS011;2854;42.692;23.364;2023-02-28T08:58:53;14.40;;;6.97;;
5662;SDS011;2854;42.692;23.364;2023-02-28T09:01:21;14.57;;;8.20;;
5662;SDS011;2854;42.692;23.364;2023-02-28T09:03:47;14.37;;;7.70;;
5662;SDS011;2854;42.692;23.364;2023-02-28T09:06:13;15.30;;;8.10;;
5662;SDS011;2854;42.692;23.364;2023-02-28T09:08:39;14.13;;;7.80;;
5662;SDS011;2854;42.692;23.364;2023-02-28T09:11:05;11.90;;;6.57;;
5662;SDS011;2854;42.692;23.364;2023-02-28T09:13:30;17.93;;;7.03;;
5662;SDS011;2854;42.692;23.364;2023-02-28T09:15:57;13.50;;;7.13;;
5662;SDS011;2854;42.692;23.364;2023-02-28T09:18:23;15.40;;;7.20;;
5662;SDS011;2854;42.692;23.364;2023-02-28T09:20:48;12.40;;;7.37;;
5662;SDS011;2854;42.692;23.364;2023-02-28T09:23:14;18.70;;;8.67;;
5662;SDS011;2854;42.692;23.364;2023-02-28T09:25:50;26.97;;;11.70;;
5662;SDS011;2854;42.692;23.364;2023-02-28T09:28:16;10.83;;;6.13;;
5662;SDS011;2854;42.692;23.364;2023-02-28T09:30:42;17.00;;;7.73;;
5662;SDS011;2854;42.692;23.364;2023-02-28T09:33:07;19.83;;;6.97;;
5662;SDS011;2854;42.692;23.364;2023-02-28T09:35:33;12.83;;;6.83;;
5662;SDS011;2854;42.692;23.364;2023-02-28T09:37:58;16.87;;;8.13;;
5662;SDS011;2854;42.692;23.364;2023-02-28T09:40:24;14.00;;;7.00;;
5662;SDS011;2854;42.692;23.364;2023-02-28T09:42:51;17.93;;;8.70;;
5662;SDS011;2854;42.692;23.364;2023-02-28T09:48:16;10.53;;;6.03;;
5662;SDS011;2854;42.692;23.364;2023-02-28T09:50:46;11.67;;;6.83;;
5662;SDS011;2854;42.692;23.364;2023-02-28T09:53:19;9.10;;;5.03;;
5662;SDS011;2854;42.692;23.364;2023-02-28T09:55:48;12.57;;;7.10;;
5662;SDS011;2854;42.692;23.364;2023-02-28T10:00:53;8.83;;;5.33;;
5662;SDS011;2854;42.692;23.364;2023-02-28T10:04:22;8.90;;;5.27;;
5662;SDS011;2854;42.692;23.364;2023-02-28T10:06:19;26.90;;;6.60;;
5662;SDS011;2854;42.692;23.364;2023-02-28T10:11:11;9.13;;;5.20;;
5662;SDS011;2854;42.692;23.364;2023-02-28T10:16:06;14.23;;;6.53;;
5662;SDS011;2854;42.692;23.364;2023-02-28T10:18:38;11.27;;;6.60;;
5662;SDS011;2854;42.692;23.364;2023-02-28T10:21:04;14.27;;;6.00;;
5662;SDS011;2854;42.692;23.364;2023-02-28T10:23:34;10.60;;;6.07;;
5662;SDS011;2854;42.692;23.364;2023-02-28T10:26:03;11.50;;;5.80;;
5662;SDS011;2854;42.692;23.364;2023-02-28T10:28:30;11.30;;;6.00;;
5662;SDS011;2854;42.692;23.364;2023-02-28T10:30:56;8.93;;;5.20;;
5662;SDS011;2854;42.692;23.364;2023-02-28T10:35:50;8.30;;;5.30;;
5662;SDS011;2854;42.692;23.364;2023-02-28T10:38:23;11.87;;;6.20;;
5662;SDS011;2854;42.692;23.364;2023-02-28T10:40:50;7.43;;;4.80;;
5662;SDS011;2854;42.692;23.364;2023-02-28T10:45:57;13.73;;;6.23;;
5662;SDS011;2854;42.692;23.364;2023-02-28T10:48:33;10.27;;;5.40;;
5662;SDS011;2854;42.692;23.364;2023-02-28T10:50:59;8.00;;;5.70;;
5662;SDS011;2854;42.692;23.364;2023-02-28T10:58:25;11.23;;;6.50;;
5662;SDS011;2854;42.692;23.364;2023-02-28T11:00:51;10.33;;;4.83;;
5662;SDS011;2854;42.692;23.364;2023-02-28T11:03:23;12.53;;;6.63;;
5662;SDS011;2854;42.692;23.364;2023-02-28T11:05:49;14.00;;;6.90;;
5662;SDS011;2854;42.692;23.364;2023-02-28T11:08:15;19.60;;;7.03;;
5662;SDS011;2854;42.692;23.364;2023-02-28T11:10:44;15.97;;;6.43;;
5662;SDS011;2854;42.692;23.364;2023-02-28T11:13:16;8.80;;;5.17;;
5662;SDS011;2854;42.692;23.364;2023-02-28T11:15:43;8.43;;;5.27;;
5662;SDS011;2854;42.692;23.364;2023-02-28T11:20:55;9.57;;;5.00;;
5662;SDS011;2854;42.692;23.364;2023-02-28T11:23:21;7.40;;;4.90;;
5662;SDS011;2854;42.692;23.364;2023-02-28T11:25:52;7.90;;;4.47;;
5662;SDS011;2854;42.692;23.364;2023-02-28T11:28:29;7.00;;;4.23;;
5662;SDS011;2854;42.692;23.364;2023-02-28T11:31:15;8.97;;;5.20;;
5662;SDS011;2854;42.692;23.364;2023-02-28T11:38:41;10.23;;;4.63;;
5662;SDS011;2854;42.692;23.364;2023-02-28T11:43:58;10.80;;;5.97;;
5662;SDS011;2854;42.692;23.364;2023-02-28T11:46:49;11.93;;;5.30;;
5662;SDS011;2854;42.692;23.364;2023-02-28T11:51:49;15.40;;;5.90;;
5662;SDS011;2854;42.692;23.364;2023-02-28T11:56:48;10.03;;;5.33;;
5662;SDS011;2854;42.692;23.364;2023-02-28T11:59:28;10.07;;;5.27;;
5662;SDS011;2854;42.692;23.364;2023-02-28T12:07:02;11.83;;;5.67;;
5662;SDS011;2854;42.692;23.364;2023-02-28T12:27:26;9.80;;;5.53;;
5662;SDS011;2854;42.692;23.364;2023-02-28T12:32:26;11.47;;;5.47;;
5662;SDS011;2854;42.692;23.364;2023-02-28T12:34:55;15.37;;;5.60;;
5662;SDS011;2854;42.692;23.364;2023-02-28T12:37:23;6.90;;;4.70;;
5662;SDS011;2854;42.692;23.364;2023-02-28T12:39:51;7.50;;;4.83;;
5662;SDS011;2854;42.692;23.364;2023-02-28T12:42:28;6.90;;;4.90;;
5662;SDS011;2854;42.692;23.364;2023-02-28T12:47:38;7.47;;;4.30;;
5662;SDS011;2854;42.692;23.364;2023-02-28T12:50:06;15.50;;;5.70;;
5662;SDS011;2854;42.692;23.364;2023-02-28T12:52:54;7.53;;;4.40;;
5662;SDS011;2854;42.692;23.364;2023-02-28T12:57:50;8.40;;;5.10;;
5662;SDS011;2854;42.692;23.364;2023-02-28T13:00:22;6.87;;;3.30;;
5662;SDS011;2854;42.692;23.364;2023-02-28T13:10:43;10.03;;;4.70;;
5662;SDS011;2854;42.692;23.364;2023-02-28T13:13:13;12.23;;;5.10;;
5662;SDS011;2854;42.692;23.364;2023-02-28T13:15:39;12.40;;;4.97;;
5662;SDS011;2854;42.692;23.364;2023-02-28T13:18:21;8.70;;;5.77;;
5662;SDS011;2854;42.692;23.364;2023-02-28T13:20:52;5.50;;;4.10;;
5662;SDS011;2854;42.692;23.364;2023-02-28T13:23:37;28.43;;;5.70;;
5662;SDS011;2854;42.692;23.364;2023-02-28T13:26:03;18.80;;;5.50;;
5662;SDS011;2854;42.692;23.364;2023-02-28T13:31:12;7.07;;;4.27;;
5662;SDS011;2854;42.692;23.364;2023-02-28T13:38:44;8.20;;;5.00;;
5662;SDS011;2854;42.692;23.364;2023-02-28T13:46:35;7.40;;;5.37;;
5662;SDS011;2854;42.692;23.364;2023-02-28T13:51:45;9.37;;;4.47;;
5662;SDS011;2854;42.692;23.364;2023-02-28T13:57:29;11.77;;;5.20;;
5662;SDS011;2854;42.692;23.364;2023-02-28T13:59:32;12.63;;;5.70;;
5662;SDS011;2854;42.692;23.364;2023-02-28T14:02:25;10.90;;;5.07;;
5662;SDS011;2854;42.692;23.364;2023-02-28T14:07:49;11.07;;;4.87;;
5662;SDS011;2854;42.692;23.364;2023-02-28T14:10:21;10.70;;;4.70;;
5662;SDS011;2854;42.692;23.364;2023-02-28T14:12:53;9.73;;;4.67;;
5662;SDS011;2854;42.692;23.364;2023-02-28T14:17:57;10.63;;;5.47;;
5662;SDS011;2854;42.692;23.364;2023-02-28T14:20:25;10.60;;;4.43;;
5662;SDS011;2854;42.692;23.364;2023-02-28T14:22:54;6.40;;;4.00;;
5662;SDS011;2854;42.692;23.364;2023-02-28T14:33:25;6.93;;;5.00;;
5662;SDS011;2854;42.692;23.364;2023-02-28T14:38:21;10.20;;;4.37;;
5662;SDS011;2854;42.692;23.364;2023-02-28T14:40:48;8.27;;;4.77;;
5662;SDS011;2854;42.692;23.364;2023-02-28T14:43:18;9.47;;;4.27;;
5662;SDS011;2854;42.692;23.364;2023-02-28T14:45:48;7.00;;;4.20;;
5662;SDS011;2854;42.692;23.364;2023-02-28T14:48:15;7.70;;;4.87;;
5662;SDS011;2854;42.692;23.364;2023-02-28T14:50:40;21.50;;;5.67;;
5662;SDS011;2854;42.692;23.364;2023-02-28T14:53:15;8.50;;;4.80;;
5662;SDS011;2854;42.692;23.364;2023-02-28T14:55:44;14.93;;;5.60;;
5662;SDS011;2854;42.692;23.364;2023-02-28T15:01:04;11.47;;;4.50;;
5662;SDS011;2854;42.692;23.364;2023-02-28T15:03:33;6.00;;;4.13;;
5662;SDS011;2854;42.692;23.364;2023-02-28T15:05:59;8.77;;;4.10;;
5662;SDS011;2854;42.692;23.364;2023-02-28T15:08:25;13.47;;;3.97;;
5662;SDS011;2854;42.692;23.364;2023-02-28T15:13:19;5.40;;;4.30;;
5662;SDS011;2854;42.692;23.364;2023-02-28T15:20:41;10.90;;;6.03;;
5662;SDS011;2854;42.692;23.364;2023-02-28T15:23:07;6.87;;;4.50;;
5662;SDS011;2854;42.692;23.364;2023-02-28T15:25:33;7.63;;;3.97;;
5662;SDS011;2854;42.692;23.364;2023-02-28T15:27:58;5.73;;;4.50;;
5662;SDS011;2854;42.692;23.364;2023-02-28T15:30:25;10.27;;;5.10;;
5662;SDS011;2854;42.692;23.364;2023-02-28T15:35:30;12.73;;;5.00;;
5662;SDS011;2854;42.692;23.364;2023-02-28T15:37:56;11.33;;;5.00;;
5662;SDS011;2854;42.692;23.364;2023-02-28T15:40:30;13.77;;;5.83;;
5662;SDS011;2854;42.692;23.364;2023-02-28T15:45:49;7.63;;;5.60;;
5662;SDS011;2854;42.692;23.364;2023-02-28T15:48:16;8.30;;;5.33;;
5662;SDS011;2854;42.692;23.364;2023-02-28T15:50:42;10.30;;;6.17;;
5662;SDS011;2854;42.692;23.364;2023-02-28T15:53:15;12.17;;;5.77;;
5662;SDS011;2854;42.692;23.364;2023-02-28T15:55:41;5.77;;;5.00;;
5662;SDS011;2854;42.692;23.364;2023-02-28T15:58:08;7.53;;;4.50;;
5662;SDS011;2854;42.692;23.364;2023-02-28T16:00:36;5.63;;;4.70;;
5662;SDS011;2854;42.692;23.364;2023-02-28T16:03:01;12.13;;;5.50;;
5662;SDS011;2854;42.692;23.364;2023-02-28T16:05:47;8.80;;;4.57;;
5662;SDS011;2854;42.692;23.364;2023-02-28T16:08:31;4.47;;;3.60;;
5662;SDS011;2854;42.692;23.364;2023-02-28T16:10:56;7.20;;;4.00;;
5662;SDS011;2854;42.692;23.364;2023-02-28T16:13:21;8.33;;;3.90;;
5662;SDS011;2854;42.692;23.364;2023-02-28T16:15:46;7.80;;;4.10;;
5662;SDS011;2854;42.692;23.364;2023-02-28T16:18:14;7.80;;;3.60;;
5662;SDS011;2854;42.692;23.364;2023-02-28T16:20:39;11.47;;;3.90;;
5662;SDS011;2854;42.692;23.364;2023-02-28T16:23:04;7.57;;;4.47;;
5662;SDS011;2854;42.692;23.364;2023-02-28T16:25:36;7.97;;;4.33;;
5662;SDS011;2854;42.692;23.364;2023-02-28T16:28:02;8.63;;;3.73;;
5662;SDS011;2854;42.692;23.364;2023-02-28T16:30:28;6.33;;;3.70;;
5662;SDS011;2854;42.692;23.364;2023-02-28T16:32:56;7.47;;;4.47;;
5662;SDS011;2854;42.692;23.364;2023-02-28T16:35:22;7.10;;;4.57;;
5662;SDS011;2854;42.692;23.364;2023-02-28T16:37:47;4.13;;;3.30;;
5662;SDS011;2854;42.692;23.364;2023-02-28T16:40:14;11.70;;;3.93;;
5662;SDS011;2854;42.692;23.364;2023-02-28T16:42:40;5.80;;;3.93;;
5662;SDS011;2854;42.692;23.364;2023-02-28T16:45:05;12.80;;;4.77;;
5662;SDS011;2854;42.692;23.364;2023-02-28T16:47:31;6.40;;;4.10;;
5662;SDS011;2854;42.692;23.364;2023-02-28T16:49:57;5.53;;;3.70;;
5662;SDS011;2854;42.692;23.364;2023-02-28T16:52:23;9.83;;;3.83;;
5662;SDS011;2854;42.692;23.364;2023-02-28T16:54:48;2.77;;;2.40;;
5662;SDS011;2854;42.692;23.364;2023-02-28T16:57:18;8.13;;;4.63;;
5662;SDS011;2854;42.692;23.364;2023-02-28T16:59:44;7.40;;;3.20;;
5662;SDS011;2854;42.692;23.364;2023-02-28T17:02:10;5.47;;;2.93;;
5662;SDS011;2854;42.692;23.364;2023-02-28T17:04:36;4.20;;;2.97;;
5662;SDS011;2854;42.692;23.364;2023-02-28T17:07:02;8.30;;;3.47;;
5662;SDS011;2854;42.692;23.364;2023-02-28T17:09:27;2.53;;;2.33;;
5662;SDS011;2854;42.692;23.364;2023-02-28T17:11:52;4.60;;;4.10;;
5662;SDS011;2854;42.692;23.364;2023-02-28T17:14:18;5.10;;;3.60;;
5662;SDS011;2854;42.692;23.364;2023-02-28T17:16:43;4.03;;;3.67;;
5662;SDS011;2854;42.692;23.364;2023-02-28T17:19:13;7.27;;;4.03;;
5662;SDS011;2854;42.692;23.364;2023-02-28T17:21:39;3.97;;;3.00;;